createdAt,value
2023-01-02T00:01:32.147Z,49.39
2023-01-02T00:04:22.192Z,48.94
2023-01-02T00:07:12.069Z,49.52
2023-01-02T00:10:00.793Z,49.74
2023-01-02T00:12:49.479Z,49.92
2023-01-02T00:15:38.166Z,49.63
2023-01-02T00:18:26.801Z,49.99
2023-01-02T00:21:17.092Z,50.00
2023-01-02T00:24:06.287Z,50.11
2023-01-02T00:26:54.956Z,50.17
2023-01-02T00:29:43.609Z,50.35
2023-01-02T00:32:32.189Z,50.27
2023-01-02T00:35:20.765Z,50.54
2023-01-02T00:38:10.789Z,50.64
2023-01-02T00:40:59.334Z,50.25
2023-01-02T00:43:47.903Z,50.57
2023-01-02T00:46:36.555Z,50.89
2023-01-02T00:49:25.247Z,50.82
2023-01-02T00:52:13.926Z,50.86
2023-01-02T00:55:03.990Z,50.90
2023-01-02T00:57:52.760Z,50.78
2023-01-02T01:00:41.687Z,51.06
2023-01-02T01:03:30.623Z,50.87
2023-01-02T01:06:19.258Z,50.95
2023-01-02T01:09:07.912Z,51.10
2023-01-02T01:12:00.069Z,50.85
2023-01-02T01:14:50.827Z,51.44
2023-01-02T01:17:39.460Z,51.24
2023-01-02T01:20:28.095Z,51.16
2023-01-02T01:23:16.728Z,51.29
2023-01-02T01:26:06.857Z,51.43
2023-01-02T01:28:57.373Z,51.12
2023-01-02T01:31:46.008Z,51.38
2023-01-02T01:34:34.686Z,51.24
2023-01-02T01:37:23.322Z,51.21
2023-01-02T01:40:12.427Z,51.11
2023-01-02T01:43:01.278Z,51.29
2023-01-02T01:45:51.334Z,51.50
2023-01-02T01:48:40.128Z,51.33
2023-01-02T01:51:30.102Z,51.50
2023-01-02T01:54:22.318Z,51.70
2023-01-02T01:57:14.772Z,51.33
2023-01-02T02:00:03.822Z,51.46
2023-01-02T02:02:59.050Z,51.34
2023-01-02T02:05:48.698Z,51.33
2023-01-02T02:08:41.673Z,51.40
2023-01-02T02:11:30.402Z,51.46
2023-01-02T02:14:19.265Z,51.35
2023-01-02T02:17:14.632Z,51.52
2023-01-02T02:20:12.638Z,51.56
2023-01-02T02:23:30.508Z,51.50
2023-01-02T02:26:51.967Z,51.44
2023-01-02T02:30:17.002Z,51.45
2023-01-02T02:33:19.249Z,51.53
2023-01-02T02:36:15.467Z,51.50
2023-01-02T02:39:12.124Z,51.74
2023-01-02T02:42:08.637Z,51.75
2023-01-02T02:45:01.430Z,51.70
2023-01-02T02:47:53.038Z,51.50
2023-01-02T02:50:46.087Z,51.57
2023-01-02T02:53:37.675Z,51.83
2023-01-02T02:56:27.585Z,51.38
2023-01-02T02:59:16.500Z,51.84
2023-01-02T03:02:05.552Z,51.96
2023-01-02T03:04:58.253Z,51.79
2023-01-02T03:07:51.184Z,51.83
2023-01-02T03:10:47.255Z,51.72
2023-01-02T03:13:42.446Z,51.93
2023-01-02T03:16:33.676Z,51.95
2023-01-02T03:19:26.793Z,51.87
2023-01-02T03:22:18.597Z,51.92
2023-01-02T03:25:11.352Z,52.16
2023-01-02T03:28:00.832Z,52.10
2023-01-02T03:30:51.173Z,52.58
2023-01-02T03:33:42.231Z,52.30
2023-01-02T03:36:32.258Z,52.07
2023-01-02T03:39:23.855Z,52.28
2023-01-02T03:42:15.907Z,52.13
2023-01-02T03:45:08.222Z,52.17
2023-01-02T03:48:01.501Z,52.02
2023-01-02T03:50:53.205Z,51.90
2023-01-02T03:53:42.057Z,52.10
2023-01-02T03:56:39.675Z,52.17
2023-01-02T03:59:36.342Z,52.21
2023-01-02T04:02:28.996Z,51.99
2023-01-02T04:05:21.574Z,52.04
2023-01-02T04:08:12.749Z,52.16
2023-01-02T04:11:02.768Z,52.08
2023-01-02T04:13:55.257Z,51.96
2023-01-02T04:16:46.633Z,51.91
2023-01-02T04:19:37.345Z,52.00
2023-01-02T04:22:28.829Z,52.11
2023-01-02T04:25:19.253Z,51.73
2023-01-02T04:28:11.194Z,51.87
2023-01-02T04:31:04.676Z,51.81
2023-01-02T04:33:57.760Z,51.79
2023-01-02T04:36:46.500Z,51.73
2023-01-02T04:39:39.615Z,51.89
2023-01-02T04:42:28.315Z,51.75
2023-01-02T04:45:17.053Z,51.76
2023-01-02T04:48:06.276Z,51.90
2023-01-02T04:50:57.124Z,51.85
2023-01-02T04:53:45.742Z,51.72
2023-01-02T04:56:34.316Z,51.81
2023-01-02T04:59:22.919Z,51.81
2023-01-02T05:02:11.640Z,51.87
2023-01-02T05:05:00.326Z,51.98
2023-01-02T05:07:50.362Z,51.89
2023-01-02T05:10:39.361Z,51.99
2023-01-02T05:13:27.962Z,51.82
2023-01-02T05:16:16.673Z,51.90
2023-01-02T05:19:05.310Z,52.09
2023-01-02T05:22:11.887Z,52.21
2023-01-02T05:25:01.885Z,52.08
2023-01-02T05:27:54.197Z,51.79
2023-01-02T05:30:42.738Z,52.02
2023-01-02T05:33:31.362Z,52.07
2023-01-02T05:36:20.081Z,52.15
2023-01-02T05:39:09.406Z,51.84
2023-01-02T05:41:59.377Z,52.04
2023-01-02T05:44:47.922Z,52.11
2023-01-02T05:47:36.538Z,51.89
2023-01-02T05:50:25.097Z,51.89
2023-01-02T05:53:13.707Z,51.99
2023-01-02T05:56:06.461Z,51.95
2023-01-02T05:58:56.503Z,52.07
2023-01-02T06:01:45.173Z,52.01
2023-01-02T06:04:33.805Z,52.27
2023-01-02T06:07:22.403Z,52.28
2023-01-02T06:10:11.284Z,51.95
2023-01-02T06:12:59.892Z,52.05
2023-01-02T06:15:49.833Z,52.23
2023-01-02T06:18:39.893Z,52.09
2023-01-02T06:21:28.570Z,52.04
2023-01-02T06:24:17.308Z,51.57
2023-01-02T06:27:05.932Z,52.26
2023-01-02T06:29:54.552Z,51.64
2023-01-02T06:32:44.593Z,51.73
2023-01-02T06:35:33.231Z,51.91
2023-01-02T06:38:21.849Z,51.63
2023-01-02T06:41:11.255Z,51.83
2023-01-02T06:43:59.823Z,51.82
2023-01-02T06:46:48.566Z,51.64
2023-01-02T06:49:38.579Z,51.72
2023-01-02T06:52:29.000Z,51.63
2023-01-02T06:55:17.655Z,51.82
2023-01-02T06:58:11.113Z,51.67
2023-01-02T07:01:04.672Z,51.83
2023-01-02T07:03:55.572Z,51.88
2023-01-02T07:06:45.505Z,51.85
2023-01-02T07:09:34.239Z,51.86
2023-01-02T07:12:22.851Z,51.92
2023-01-02T07:15:12.055Z,51.81
2023-01-02T07:18:00.818Z,51.62
2023-01-02T07:20:55.165Z,51.80
2023-01-02T07:23:45.216Z,51.73
2023-01-02T07:26:33.909Z,52.03
2023-01-02T07:29:22.519Z,52.18
2023-01-02T07:32:11.220Z,52.16
2023-01-02T07:34:59.839Z,51.52
2023-01-02T07:37:48.488Z,51.64
2023-01-02T07:40:38.485Z,51.66
2023-01-02T07:43:27.214Z,51.91
2023-01-02T07:46:17.088Z,52.05
2023-01-02T07:49:05.732Z,51.53
2023-01-02T07:51:54.291Z,51.29
2023-01-02T07:54:42.860Z,51.20
2023-01-02T07:57:32.960Z,50.97
2023-01-02T08:00:22.152Z,50.28
2023-01-02T08:03:10.767Z,50.74
2023-01-02T08:06:04.680Z,50.64
2023-01-02T08:08:53.495Z,50.35
2023-01-02T08:11:42.094Z,50.17
2023-01-02T08:14:32.086Z,50.39
2023-01-02T08:17:20.807Z,50.46
2023-01-02T08:20:11.333Z,49.43
2023-01-02T08:22:59.969Z,49.78
2023-01-02T08:25:52.668Z,49.34
2023-01-02T08:28:44.820Z,49.40
2023-01-02T08:31:43.515Z,49.38
2023-01-02T08:34:32.568Z,47.69
2023-01-02T08:37:21.358Z,46.99
2023-01-02T08:40:11.209Z,47.00
2023-01-02T08:42:59.836Z,47.21
2023-01-02T08:45:48.494Z,47.92
2023-01-02T08:48:38.561Z,48.52
2023-01-02T08:51:27.373Z,49.45
2023-01-02T08:54:15.997Z,49.39
2023-01-02T08:57:04.676Z,47.76
2023-01-02T08:59:53.376Z,48.35
2023-01-02T09:02:42.108Z,48.16
2023-01-02T09:05:32.241Z,48.06
2023-01-02T09:08:20.886Z,48.05
2023-01-02T09:11:13.777Z,47.86
2023-01-02T09:14:03.009Z,47.99
2023-01-02T09:16:52.624Z,47.77
2023-01-02T09:19:42.664Z,47.64
2023-01-02T09:22:32.589Z,47.81
2023-01-02T09:25:24.323Z,48.12
2023-01-02T09:28:13.262Z,47.88
2023-01-02T09:31:05.057Z,42.51
2023-01-02T09:33:55.943Z,40.96
2023-01-02T09:36:44.651Z,39.40
2023-01-02T09:39:34.593Z,39.01
2023-01-02T09:42:23.259Z,38.38
2023-01-02T09:45:12.708Z,37.00
2023-01-02T09:48:01.682Z,37.19
2023-01-02T09:50:51.502Z,36.91
2023-01-02T09:53:40.253Z,37.84
2023-01-02T09:56:34.477Z,39.28
2023-01-02T09:59:27.053Z,40.54
2023-01-02T10:02:26.504Z,41.27
2023-01-02T10:05:33.550Z,41.80
2023-01-02T10:08:32.314Z,41.67
2023-01-02T10:11:33.167Z,42.41
2023-01-02T10:14:36.109Z,42.64
2023-01-02T10:17:28.582Z,42.89
2023-01-02T10:20:24.200Z,42.83
2023-01-02T10:23:15.546Z,42.92
2023-01-02T10:26:06.609Z,43.09
2023-01-02T10:29:01.462Z,43.04
2023-01-02T10:31:53.222Z,43.28
2023-01-02T10:34:44.825Z,43.01
2023-01-02T10:37:33.590Z,42.93
2023-01-02T10:40:22.279Z,42.95
2023-01-02T10:43:12.236Z,42.90
2023-01-02T10:46:02.705Z,42.68
2023-01-02T10:48:52.397Z,42.44
2023-01-02T10:51:45.644Z,42.78
2023-01-02T10:54:55.012Z,42.48
2023-01-02T10:57:51.168Z,42.45
2023-01-02T11:00:39.913Z,42.27
2023-01-02T11:03:30.381Z,42.13
2023-01-02T11:06:35.253Z,42.19
2023-01-02T11:09:28.164Z,42.16
2023-01-02T11:12:16.819Z,42.39
2023-01-02T11:15:13.323Z,41.84
2023-01-02T11:18:02.691Z,42.01
2023-01-02T11:20:55.031Z,41.84
2023-01-02T11:23:45.875Z,41.34
2023-01-02T11:26:36.022Z,41.64
2023-01-02T11:29:30.642Z,41.65
2023-01-02T11:32:27.932Z,41.57
2023-01-02T11:35:34.494Z,41.77
2023-01-02T11:38:29.024Z,41.88
2023-01-02T11:41:50.220Z,42.17
2023-01-02T11:44:48.240Z,41.75
2023-01-02T11:47:39.868Z,41.86
2023-01-02T11:50:29.791Z,41.57
2023-01-02T11:53:21.916Z,41.61
2023-01-02T11:56:15.030Z,41.71
2023-01-02T11:59:07.078Z,42.42
2023-01-02T12:01:59.915Z,42.88
2023-01-02T12:04:48.602Z,42.58
2023-01-02T12:07:44.021Z,42.46
2023-01-02T12:10:42.181Z,42.65
2023-01-02T12:13:44.040Z,42.69
2023-01-02T12:16:37.740Z,42.62
2023-01-02T12:19:41.267Z,43.13
2023-01-02T12:22:52.631Z,43.26
2023-01-02T12:25:49.705Z,42.97
2023-01-02T12:29:46.985Z,43.25
2023-01-02T12:33:05.061Z,43.56
2023-01-02T12:36:07.820Z,43.45
2023-01-02T12:39:11.209Z,43.31
2023-01-02T12:42:07.460Z,43.80
2023-01-02T12:45:00.259Z,43.96
2023-01-02T12:48:07.067Z,43.61
2023-01-02T12:51:03.915Z,44.12
2023-01-02T12:54:20.675Z,43.48
2023-01-02T12:57:21.847Z,43.77
2023-01-02T13:00:25.568Z,43.96
2023-01-02T13:03:31.310Z,44.06
2023-01-02T13:06:43.729Z,43.95
2023-01-02T13:09:34.828Z,43.87
2023-01-02T13:12:25.819Z,43.92
2023-01-02T13:15:21.080Z,44.04
2023-01-02T13:18:15.660Z,44.34
2023-01-02T13:21:10.747Z,44.37
2023-01-02T13:23:59.665Z,44.50
2023-01-02T13:26:48.336Z,43.82
2023-01-02T13:29:46.687Z,44.25
2023-01-02T13:32:36.765Z,44.12
2023-01-02T13:35:25.555Z,44.30
2023-01-02T13:38:16.625Z,44.46
2023-01-02T13:41:05.322Z,44.35
2023-01-02T13:43:56.594Z,44.33
2023-01-02T13:50:04.317Z,44.92
2023-01-02T13:53:02.641Z,45.04
2023-01-02T13:56:06.701Z,44.81
2023-01-02T13:59:02.748Z,44.32
2023-01-02T14:02:16.726Z,44.59
2023-01-02T14:05:38.647Z,44.42
2023-01-02T14:08:29.743Z,44.82
2023-01-02T14:11:21.027Z,44.37
2023-01-02T14:14:12.302Z,44.38
2023-01-02T14:17:11.692Z,44.77
2023-01-02T14:20:21.459Z,44.52
2023-01-02T14:23:11.822Z,45.41
2023-01-02T14:26:01.873Z,45.40
2023-01-02T14:28:52.631Z,45.73
2023-01-02T14:31:41.471Z,46.04
2023-01-02T14:34:30.229Z,46.41
2023-01-02T14:37:29.851Z,45.67
2023-01-02T14:40:34.931Z,45.47
2023-01-02T14:43:31.556Z,45.25
2023-01-02T14:46:22.741Z,44.55
2023-01-02T14:49:25.523Z,45.26
2023-01-02T14:52:19.463Z,45.14
2023-01-02T14:55:14.728Z,45.10
2023-01-02T14:58:04.430Z,44.99
2023-01-02T15:00:59.108Z,45.29
2023-01-02T15:03:56.312Z,45.71
2023-01-02T15:06:48.028Z,45.19
2023-01-02T15:09:39.593Z,45.06
2023-01-02T15:12:55.572Z,44.69
2023-01-02T15:15:46.962Z,44.82
2023-01-02T15:18:38.915Z,44.98
2023-01-02T15:21:31.524Z,44.65
2023-01-02T15:24:22.345Z,45.04
2023-01-02T15:27:14.513Z,45.02
2023-01-02T15:30:17.996Z,44.97
2023-01-02T15:33:06.847Z,45.05
2023-01-02T15:35:59.533Z,45.04
2023-01-02T15:38:50.782Z,45.17
2023-01-02T15:41:43.295Z,45.00
2023-01-02T15:45:04.346Z,44.78
2023-01-02T15:47:53.615Z,45.41
2023-01-02T15:50:42.877Z,45.54
2023-01-02T15:53:34.520Z,45.34
2023-01-02T15:56:34.040Z,46.00
2023-01-02T15:59:28.299Z,46.69
2023-01-02T16:02:38.121Z,46.71
2023-01-02T16:05:28.278Z,46.63
2023-01-02T16:08:21.799Z,46.78
2023-01-02T16:11:15.945Z,46.64
2023-01-02T16:14:22.166Z,46.60
2023-01-02T16:17:16.272Z,46.17
2023-01-02T16:20:07.734Z,46.22
2023-01-02T16:22:58.806Z,45.85
2023-01-02T16:25:52.804Z,45.47
2023-01-02T16:28:44.582Z,45.69
2023-01-02T16:31:52.578Z,39.66
2023-01-02T16:34:41.677Z,38.28
2023-01-02T16:37:35.053Z,38.40
2023-01-02T16:41:00.426Z,37.75
2023-01-02T16:43:52.402Z,37.45
2023-01-02T16:46:41.717Z,37.20
2023-01-02T16:49:30.453Z,37.34
2023-01-02T16:52:19.175Z,36.63
2023-01-02T16:55:08.930Z,35.60
2023-01-02T16:57:57.692Z,37.04
2023-01-02T17:00:47.897Z,39.13
2023-01-02T17:03:36.628Z,39.95
2023-01-02T17:06:25.344Z,40.96
2023-01-02T17:09:13.987Z,41.34
2023-01-02T17:12:03.191Z,41.50
2023-01-02T17:14:51.963Z,41.63
2023-01-02T17:17:42.051Z,41.67
2023-01-02T17:20:32.402Z,41.50
2023-01-02T17:23:21.201Z,41.58
2023-01-02T17:26:09.911Z,41.94
2023-01-02T17:28:58.580Z,42.68
2023-01-02T17:31:49.963Z,42.35
2023-01-02T17:34:39.959Z,42.35
2023-01-02T17:37:28.615Z,42.49
2023-01-02T17:40:17.377Z,42.91
2023-01-02T17:43:06.191Z,43.08
2023-01-02T17:45:54.836Z,43.27
2023-01-02T17:48:43.852Z,43.85
2023-01-02T17:51:33.840Z,43.49
2023-01-02T17:54:22.554Z,43.81
2023-01-02T17:57:11.675Z,43.85
2023-01-02T18:00:00.304Z,44.92
2023-01-02T18:02:49.025Z,44.88
2023-01-02T18:05:38.067Z,44.55
2023-01-02T18:08:28.128Z,44.54
2023-01-02T18:11:17.810Z,44.69
2023-01-02T18:14:14.572Z,44.87
2023-01-02T18:17:14.198Z,44.42
2023-01-02T18:20:03.919Z,44.53
2023-01-02T18:22:52.598Z,44.72
2023-01-02T18:25:43.353Z,44.46
2023-01-02T18:28:32.145Z,44.69
2023-01-02T18:31:22.381Z,44.75
2023-01-02T18:34:45.825Z,45.03
2023-01-02T18:37:29.454Z,44.87
2023-01-02T18:40:27.585Z,45.03
2023-01-02T18:43:24.906Z,45.19
2023-01-02T18:46:17.459Z,44.93
2023-01-02T18:49:16.497Z,45.21
2023-01-02T18:52:25.291Z,45.55
2023-01-02T18:55:21.615Z,45.32
2023-01-02T18:58:37.361Z,44.90
2023-01-02T19:01:29.102Z,45.97
2023-01-02T19:04:27.289Z,45.91
2023-01-02T19:07:24.506Z,45.89
2023-01-02T19:10:29.969Z,45.30
2023-01-02T19:13:25.156Z,45.22
2023-01-02T19:16:19.096Z,45.39
2023-01-02T19:19:13.280Z,45.80
2023-01-02T19:22:02.734Z,45.46
2023-01-02T19:24:51.596Z,45.39
2023-01-02T19:27:40.411Z,44.98
2023-01-02T19:30:35.798Z,45.16
2023-01-02T19:33:40.195Z,44.85
2023-01-02T19:36:36.962Z,44.71
2023-01-02T19:39:27.422Z,44.80
2023-01-02T19:42:23.240Z,45.07
2023-01-02T19:45:15.600Z,44.45
2023-01-02T19:48:04.194Z,45.17
2023-01-02T19:50:54.097Z,44.85
2023-01-02T19:53:42.687Z,44.74
2023-01-02T19:56:31.267Z,44.54
2023-01-02T19:59:19.902Z,44.81
2023-01-02T20:02:08.973Z,45.16
2023-01-02T20:04:57.850Z,44.64
2023-01-02T20:07:47.849Z,44.40
2023-01-02T20:10:36.447Z,44.62
2023-01-02T20:13:24.991Z,44.68
2023-01-02T20:16:13.583Z,45.19
2023-01-02T20:19:02.272Z,44.62
2023-01-02T20:21:50.832Z,44.92
2023-01-02T20:24:40.823Z,45.88
2023-01-02T20:27:29.399Z,45.14
2023-01-02T20:30:23.865Z,45.57
2023-01-02T20:33:14.245Z,45.47
2023-01-02T20:36:03.639Z,45.38
2023-01-02T20:38:54.440Z,45.41
2023-01-02T20:41:44.754Z,45.28
2023-01-02T20:44:33.517Z,44.92
2023-01-02T20:47:22.091Z,44.95
2023-01-02T20:50:11.031Z,44.97
2023-01-02T20:52:59.742Z,44.79
2023-01-02T20:55:48.444Z,46.01
2023-01-02T20:58:38.430Z,45.22
2023-01-02T21:01:27.676Z,45.14
2023-01-02T21:04:22.565Z,44.74
2023-01-02T21:07:16.597Z,44.90
2023-01-02T21:10:05.791Z,45.48
2023-01-02T21:13:10.867Z,44.73
2023-01-02T21:16:00.868Z,45.16
2023-01-02T21:18:49.557Z,45.04
2023-01-02T21:21:38.189Z,44.87
2023-01-02T21:24:26.867Z,45.00
2023-01-02T21:27:15.637Z,45.23
2023-01-02T21:30:04.249Z,45.34
2023-01-02T21:32:54.244Z,44.84
2023-01-02T21:35:43.335Z,45.49
2023-01-02T21:38:31.953Z,45.68
2023-01-02T21:41:38.275Z,46.00
2023-01-02T21:44:26.919Z,45.41
2023-01-02T21:47:15.768Z,45.37
2023-01-02T21:50:06.433Z,45.86
2023-01-02T21:52:55.570Z,45.65
2023-01-02T21:55:44.167Z,45.78
2023-01-02T21:58:32.809Z,45.69
2023-01-02T22:01:21.411Z,46.07
2023-01-02T22:04:10.139Z,45.66
2023-01-02T22:10:10.029Z,46.32
2023-01-02T22:12:58.713Z,46.65
2023-01-02T22:15:47.389Z,45.81
2023-01-02T22:18:38.320Z,46.44
2023-01-02T22:21:27.194Z,46.53
2023-01-02T22:24:17.664Z,46.09
2023-01-02T22:27:07.933Z,46.14
2023-01-02T22:33:09.091Z,46.23
2023-01-02T22:35:57.652Z,45.94
2023-01-02T22:39:17.631Z,45.95
2023-01-02T22:42:33.677Z,46.00
2023-01-02T22:45:24.695Z,45.63
2023-01-02T22:48:19.201Z,45.65
2023-01-02T22:51:18.440Z,45.61
2023-01-02T22:54:16.216Z,45.35
2023-01-02T22:57:18.610Z,45.63
2023-01-02T23:00:08.743Z,46.80
2023-01-02T23:02:58.151Z,46.10
2023-01-02T23:05:46.763Z,46.39
2023-01-02T23:08:35.564Z,45.92
2023-01-02T23:11:24.488Z,45.99
2023-01-02T23:14:15.280Z,46.18
2023-01-02T23:17:21.440Z,45.73
2023-01-02T23:20:10.802Z,45.96
2023-01-02T23:22:59.377Z,46.30
2023-01-02T23:25:47.999Z,45.80
2023-01-02T23:29:06.170Z,45.92
2023-01-02T23:31:48.230Z,46.07
2023-01-02T23:34:36.834Z,46.49
2023-01-02T23:37:26.159Z,46.06
2023-01-02T23:40:14.963Z,46.24
2023-01-02T23:43:03.685Z,47.54
2023-01-02T23:45:53.774Z,48.34
2023-01-02T23:48:43.778Z,48.63
2023-01-02T23:51:32.454Z,48.80
2023-01-02T23:54:21.417Z,49.17
2023-01-02T23:57:10.061Z,49.31
2023-01-02T23:59:58.649Z,49.44
